createdAt,value
2018-06-29T00:04:57.294Z,1014.2
2018-06-29T00:09:57.827Z,1014.3
2018-06-29T00:14:57.732Z,1014.2
2018-06-29T00:20:09.647Z,1014.2
2018-06-29T00:25:09.353Z,1014.1
2018-06-29T00:30:09.362Z,1014.1
2018-06-29T00:35:09.381Z,1014
2018-06-29T00:40:09.392Z,1014
2018-06-29T00:45:10.577Z,1014
2018-06-29T00:50:10.319Z,1014
2018-06-29T00:55:10.376Z,1014
2018-06-29T01:00:10.301Z,1014
2018-06-29T01:05:10.314Z,1014
2018-06-29T01:10:10.319Z,1013.9
2018-06-29T01:15:10.335Z,1013.9
2018-06-29T01:20:10.831Z,1013.9
2018-06-29T01:25:10.550Z,1013.9
2018-06-29T01:30:22.789Z,1013.8
2018-06-29T01:35:22.694Z,1013.8
2018-06-29T01:40:22.515Z,1013.7
2018-06-29T01:45:22.653Z,1013.6
2018-06-29T01:50:22.533Z,1013.6
2018-06-29T01:55:22.536Z,1013.6
2018-06-29T02:00:22.526Z,1013.5
2018-06-29T02:05:22.545Z,1013.5
2018-06-29T02:10:22.722Z,1013.6
2018-06-29T02:15:33.481Z,1013.6
2018-06-29T02:20:33.217Z,1013.5
2018-06-29T02:25:33.222Z,1013.6
2018-06-29T02:30:33.550Z,1013.5
2018-06-29T02:35:33.217Z,1013.7
2018-06-29T02:40:33.233Z,1013.8
2018-06-29T02:45:33.246Z,1013.5
2018-06-29T02:50:36.163Z,1013.5
2018-06-29T02:55:36.024Z,1013.5
2018-06-29T03:00:48.598Z,1013.5
2018-06-29T03:05:48.280Z,1013.5
2018-06-29T03:10:48.324Z,1013.5
2018-06-29T03:15:48.194Z,1013.5
2018-06-29T03:20:48.319Z,1013.5
2018-06-29T03:25:48.289Z,1013.5
2018-06-29T03:30:48.176Z,1013.5
2018-06-29T03:35:48.443Z,1013.4
2018-06-29T03:40:48.422Z,1013.4
2018-06-29T03:46:00.387Z,1013.3
2018-06-29T03:51:00.275Z,1013.4
2018-06-29T03:56:00.234Z,1013.4
2018-06-29T04:01:00.379Z,1013.3
2018-06-29T04:06:00.160Z,1013.3
2018-06-29T04:11:00.127Z,1013.3
2018-06-29T04:16:00.157Z,1013.2
2018-06-29T04:21:03.766Z,1013.2
2018-06-29T04:26:03.523Z,1013.2
2018-06-29T04:31:16.026Z,1013.2
2018-06-29T04:36:16.087Z,1013.1
2018-06-29T04:41:15.738Z,1013.2
2018-06-29T04:46:15.985Z,1013.3
2018-06-29T04:51:15.919Z,1013.2
2018-06-29T04:56:15.745Z,1013.2
2018-06-29T05:01:15.899Z,1013.2
2018-06-29T05:06:16.452Z,1013.2
2018-06-29T05:11:16.403Z,1013.1
2018-06-29T05:16:29.279Z,1013.2
2018-06-29T05:21:28.969Z,1013.4
2018-06-29T05:26:29.181Z,1013.2
2018-06-29T05:31:28.963Z,1013.3
2018-06-29T05:36:29.013Z,1013.4
2018-06-29T05:41:29.507Z,1013.4
2018-06-29T05:46:29.237Z,1013.4
2018-06-29T05:51:29.179Z,1013.4
2018-06-29T05:56:29.205Z,1013.5
2018-06-29T06:01:41.941Z,1013.5
2018-06-29T06:06:41.642Z,1013.6
2018-06-29T06:11:41.461Z,1013.6
2018-06-29T06:16:41.581Z,1013.6
2018-06-29T06:21:41.628Z,1013.7
2018-06-29T06:26:41.466Z,1013.6
2018-06-29T06:31:41.606Z,1013.7
2018-06-29T06:36:44.432Z,1013.7
2018-06-29T06:41:44.692Z,1013.8
2018-06-29T06:46:56.927Z,1013.9
2018-06-29T06:51:56.601Z,1013.9
2018-06-29T06:56:56.512Z,1014
2018-06-29T07:01:56.563Z,1013.9
2018-06-29T07:06:56.385Z,1013.8
2018-06-29T07:11:56.394Z,1013.9
2018-06-29T07:16:56.564Z,1013.9
2018-06-29T07:21:57.523Z,1013.9
2018-06-29T07:26:57.443Z,1014
2018-06-29T07:32:10.078Z,1014
2018-06-29T07:37:10.005Z,1014
2018-06-29T07:42:10.053Z,1013.9
2018-06-29T07:47:09.944Z,1013.9
2018-06-29T07:52:12.740Z,1014
2018-06-29T07:57:09.826Z,1014
2018-06-29T08:02:09.961Z,1014
2018-06-29T08:07:12.586Z,1014
2018-06-29T08:12:12.494Z,1014.1
2018-06-29T08:17:26.405Z,1014
2018-06-29T08:22:26.134Z,1014
2018-06-29T08:27:26.124Z,1014.1
2018-06-29T08:32:26.363Z,1014.1
2018-06-29T08:37:26.275Z,1014.1
2018-06-29T08:42:26.302Z,1014.1
2018-06-29T08:47:26.355Z,1014.1
2018-06-29T08:52:26.288Z,1014.1
2018-06-29T08:57:26.271Z,1014
2018-06-29T09:02:38.731Z,1014
2018-06-29T09:07:38.556Z,1013.9
2018-06-29T09:12:38.583Z,1014
2018-06-29T09:17:38.647Z,1013.9
2018-06-29T09:22:38.668Z,1013.9
2018-06-29T09:27:38.455Z,1013.9
2018-06-29T09:32:38.658Z,1014
2018-06-29T09:37:38.499Z,1013.9
2018-06-29T09:42:38.897Z,1013.8
2018-06-29T09:47:50.776Z,1013.9
2018-06-29T09:52:50.192Z,1013.8
2018-06-29T09:57:50.186Z,1013.9
2018-06-29T10:02:50.415Z,1013.8
2018-06-29T10:07:50.180Z,1014
2018-06-29T10:12:50.372Z,1013.9
2018-06-29T10:17:55.463Z,1013.9
2018-06-29T10:22:55.169Z,1013.9
2018-06-29T10:27:55.802Z,1014
2018-06-29T10:33:03.319Z,1013.9
2018-06-29T10:38:03.258Z,1013.8
2018-06-29T10:43:03.066Z,1013.9
2018-06-29T10:48:03.059Z,1014
2018-06-29T10:53:03.179Z,1014
2018-06-29T10:58:03.061Z,1013.9
2018-06-29T11:03:03.086Z,1013.7
2018-06-29T11:08:03.363Z,1013.8
2018-06-29T11:13:03.275Z,1013.7
2018-06-29T11:18:15.660Z,1013.8
2018-06-29T11:23:15.274Z,1013.7
2018-06-29T11:28:15.441Z,1013.7
2018-06-29T11:33:15.804Z,1013.7
2018-06-29T11:38:15.491Z,1013.6
2018-06-29T11:43:15.332Z,1013.6
2018-06-29T11:48:15.484Z,1013.6
2018-06-29T11:53:15.478Z,1013.7
2018-06-29T11:58:18.338Z,1013.6
2018-06-29T12:03:15.420Z,1013.6
2018-06-29T12:08:15.488Z,1013.5
2018-06-29T12:13:15.477Z,1013.4
2018-06-29T12:18:15.940Z,1013.4
2018-06-29T12:23:15.748Z,1013.2
2018-06-29T12:28:28.383Z,1013.2
2018-06-29T12:33:28.282Z,1013.2
2018-06-29T12:38:28.214Z,1013.3
2018-06-29T12:43:28.085Z,1013.3
2018-06-29T12:48:28.313Z,1013.2
2018-06-29T12:53:28.264Z,1013.1
2018-06-29T12:58:28.619Z,1013.2
2018-06-29T13:03:28.432Z,1013.2
2018-06-29T13:08:28.164Z,1013.1
2018-06-29T13:13:40.555Z,1013.1
2018-06-29T13:18:40.411Z,1013
2018-06-29T13:23:40.390Z,1013.1
2018-06-29T13:28:40.449Z,1013.1
2018-06-29T13:33:40.627Z,1013
2018-06-29T13:38:41.879Z,1013
2018-06-29T13:43:41.869Z,1013
2018-06-29T13:48:41.618Z,1013
2018-06-29T13:53:41.619Z,1012.9
2018-06-29T13:58:41.647Z,1012.9
2018-06-29T14:03:41.994Z,1012.9
2018-06-29T14:08:41.616Z,1012.7
2018-06-29T14:13:43.061Z,1012.8
2018-06-29T14:18:42.808Z,1012.8
2018-06-29T14:23:55.779Z,1012.8
2018-06-29T14:28:55.277Z,1012.7
2018-06-29T14:33:55.001Z,1012.7
2018-06-29T14:38:55.118Z,1012.6
2018-06-29T14:43:55.033Z,1012.7
2018-06-29T14:48:55.292Z,1012.5
2018-06-29T14:53:55.090Z,1012.5
2018-06-29T14:58:57.594Z,1012.5
2018-06-29T15:03:55.945Z,1012.4
2018-06-29T15:09:08.222Z,1012.4
2018-06-29T15:14:07.952Z,1012.5
2018-06-29T15:19:08.137Z,1012.4
2018-06-29T15:24:08.169Z,1012.5
2018-06-29T15:29:08.322Z,1012.6
2018-06-29T15:34:07.966Z,1012.7
2018-06-29T15:39:07.956Z,1012.6
2018-06-29T15:44:10.423Z,1012.7
2018-06-29T15:49:10.265Z,1012.8
2018-06-29T15:54:22.785Z,1012.7
2018-06-29T15:59:22.539Z,1013.1
2018-06-29T16:04:22.533Z,1012.9
2018-06-29T16:09:22.554Z,1012.9
2018-06-29T16:14:22.523Z,1012.9
2018-06-29T16:19:22.591Z,1012.9
2018-06-29T16:24:22.576Z,1012.8
2018-06-29T16:29:22.663Z,1012.9
2018-06-29T16:34:22.546Z,1012.8
2018-06-29T16:39:33.976Z,1012.9
2018-06-29T16:44:33.741Z,1012.8
2018-06-29T16:49:33.931Z,1012.9
2018-06-29T16:54:33.666Z,1012.9
2018-06-29T16:59:33.686Z,1013
2018-06-29T17:04:33.707Z,1013
2018-06-29T17:09:33.691Z,1013
2018-06-29T17:14:36.054Z,1013.1
2018-06-29T17:19:35.756Z,1013.2
2018-06-29T17:24:45.954Z,1013.2
2018-06-29T17:29:45.678Z,1013.3
2018-06-29T17:34:45.683Z,1013.3
2018-06-29T17:39:45.694Z,1013.3
2018-06-29T17:44:45.772Z,1013.2
2018-06-29T17:49:45.773Z,1013.2
2018-06-29T17:54:45.794Z,1013.2
2018-06-29T17:59:45.960Z,1013.2
2018-06-29T18:04:45.782Z,1013.1
2018-06-29T18:09:59.764Z,1013.2
2018-06-29T18:14:56.666Z,1013.1
2018-06-29T18:19:56.672Z,1013.1
2018-06-29T18:24:56.707Z,1013.1
2018-06-29T18:29:56.697Z,1013.2
2018-06-29T18:34:56.661Z,1013.2
2018-06-29T18:39:56.800Z,1013.2
2018-06-29T18:44:59.019Z,1013.2
2018-06-29T18:49:58.932Z,1013.2
2018-06-29T18:55:11.579Z,1013.2
2018-06-29T19:00:11.515Z,1013.2
2018-06-29T19:05:11.289Z,1013.3
2018-06-29T19:10:11.345Z,1013.4
2018-06-29T19:15:11.247Z,1013.3
2018-06-29T19:20:11.192Z,1013.4
2018-06-29T19:25:11.419Z,1013.4
2018-06-29T19:30:11.179Z,1013.4
2018-06-29T19:35:11.267Z,1013.4
2018-06-29T19:40:22.891Z,1013.5
2018-06-29T19:45:22.902Z,1013.5
2018-06-29T19:50:23.237Z,1013.6
2018-06-29T19:55:22.895Z,1013.6
2018-06-29T20:00:22.904Z,1013.6
2018-06-29T20:05:22.893Z,1013.7
2018-06-29T20:10:23.033Z,1013.6
2018-06-29T20:15:24.243Z,1013.7
2018-06-29T20:20:24.859Z,1013.8
2018-06-29T20:25:41.301Z,1013.8
2018-06-29T20:30:40.876Z,1013.8
2018-06-29T20:35:40.384Z,1013.8
2018-06-29T20:40:40.445Z,1013.9
2018-06-29T20:45:38.979Z,1013.8
2018-06-29T20:50:40.052Z,1013.9
2018-06-29T20:55:40.089Z,1013.8
2018-06-29T21:00:39.747Z,1013.8
2018-06-29T21:05:39.744Z,1013.9
2018-06-29T21:10:39.749Z,1013.9
2018-06-29T21:15:39.744Z,1013.9
2018-06-29T21:20:39.760Z,1013.8
2018-06-29T21:25:39.754Z,1013.9
2018-06-29T21:30:40.173Z,1013.9
2018-06-29T21:35:51.389Z,1013.9
2018-06-29T21:40:51.208Z,1013.9
2018-06-29T21:45:51.073Z,1014.1
2018-06-29T21:50:51.076Z,1013.9
2018-06-29T21:55:51.091Z,1013.9
2018-06-29T22:00:51.088Z,1013.8
2018-06-29T22:05:51.095Z,1013.9
2018-06-29T22:10:52.323Z,1013.8
2018-06-29T22:15:52.250Z,1013.9
2018-06-29T22:21:04.358Z,1013.9
2018-06-29T22:26:04.090Z,1013.9
2018-06-29T22:31:04.064Z,1013.9
2018-06-29T22:36:04.074Z,1014
2018-06-29T22:41:04.082Z,1014
2018-06-29T22:46:04.890Z,1014
2018-06-29T22:51:04.071Z,1014
2018-06-29T22:56:08.915Z,1013.9
2018-06-29T23:01:08.993Z,1013.8
2018-06-29T23:06:20.601Z,1013.8
2018-06-29T23:11:20.451Z,1013.8
2018-06-29T23:16:20.332Z,1013.8
2018-06-29T23:21:20.425Z,1013.7
2018-06-29T23:26:20.441Z,1013.7
2018-06-29T23:31:20.345Z,1013.6
2018-06-29T23:36:20.334Z,1013.6
2018-06-29T23:41:20.892Z,1013.5
2018-06-29T23:46:20.629Z,1013.5
2018-06-29T23:51:32.761Z,1013.5
2018-06-29T23:56:32.464Z,1013.5
